sensor_id;sensor_type;location;lat;lon;timestamp;pressure;altitude;pressure_sealevel;temperature;humidity
41703;BME280;861;48.808;9.006;2023-11-19T00:00:07;96994.34;;;9.21;97.05
41703;BME280;861;48.808;9.006;2023-11-19T00:02:39;96998.16;;;9.13;98.36
41703;BME280;861;48.808;9.006;2023-11-19T00:05:07;96995.63;;;9.38;96.74
41703;BME280;861;48.808;9.006;2023-11-19T00:07:41;96986.63;;;9.26;97.68
41703;BME280;861;48.808;9.006;2023-11-19T00:10:16;96983.94;;;9.30;98.18
41703;BME280;861;48.808;9.006;2023-11-19T00:12:48;96979.97;;;9.17;99.34
41703;BME280;861;48.808;9.006;2023-11-19T00:15:17;96986.25;;;9.24;98.61
41703;BME280;861;48.808;9.006;2023-11-19T00:17:48;96973.94;;;9.45;97.96
41703;BME280;861;48.808;9.006;2023-11-19T00:20:18;96967.69;;;9.37;98.39
41703;BME280;861;48.808;9.006;2023-11-19T00:22:46;96963.78;;;9.34;99.82
41703;BME280;861;48.808;9.006;2023-11-19T00:25:15;96980.56;;;9.51;99.53
41703;BME280;861;48.808;9.006;2023-11-19T00:27:41;96966.66;;;9.59;99.69
41703;BME280;861;48.808;9.006;2023-11-19T00:30:11;96972.78;;;9.42;100.00
41703;BME280;861;48.808;9.006;2023-11-19T00:32:38;96951.41;;;9.41;100.00
41703;BME280;861;48.808;9.006;2023-11-19T00:35:07;96953.09;;;9.63;100.00
41703;BME280;861;48.808;9.006;2023-11-19T00:37:34;96953.16;;;9.77;100.00
41703;BME280;861;48.808;9.006;2023-11-19T00:40:01;96975.69;;;9.81;100.00
41703;BME280;861;48.808;9.006;2023-11-19T00:42:32;96952.75;;;9.75;100.00
41703;BME280;861;48.808;9.006;2023-11-19T00:44:58;96948.22;;;10.03;100.00
41703;BME280;861;48.808;9.006;2023-11-19T00:47:25;96944.31;;;9.97;100.00
41703;BME280;861;48.808;9.006;2023-11-19T00:49:51;96943.91;;;9.95;100.00
41703;BME280;861;48.808;9.006;2023-11-19T00:52:18;96941.28;;;10.13;100.00
41703;BME280;861;48.808;9.006;2023-11-19T00:54:46;96930.66;;;9.90;100.00
41703;BME280;861;48.808;9.006;2023-11-19T00:57:12;96933.50;;;10.11;100.00
41703;BME280;861;48.808;9.006;2023-11-19T00:59:42;96942.03;;;10.13;100.00
41703;BME280;861;48.808;9.006;2023-11-19T01:02:09;96940.47;;;10.12;100.00
41703;BME280;861;48.808;9.006;2023-11-19T01:04:36;96930.75;;;10.08;100.00
41703;BME280;861;48.808;9.006;2023-11-19T01:07:04;96925.38;;;10.36;99.06
41703;BME280;861;48.808;9.006;2023-11-19T01:09:33;96923.81;;;10.31;99.63
41703;BME280;861;48.808;9.006;2023-11-19T01:12:02;96933.53;;;10.22;100.00
41703;BME280;861;48.808;9.006;2023-11-19T01:14:30;96944.38;;;10.08;100.00
41703;BME280;861;48.808;9.006;2023-11-19T01:16:57;96931.25;;;10.41;100.00
41703;BME280;861;48.808;9.006;2023-11-19T01:19:23;96930.06;;;10.39;100.00
41703;BME280;861;48.808;9.006;2023-11-19T01:21:51;96928.09;;;10.25;100.00
41703;BME280;861;48.808;9.006;2023-11-19T01:24:18;96930.81;;;10.36;100.00
41703;BME280;861;48.808;9.006;2023-11-19T01:26:46;96922.69;;;10.43;99.93
41703;BME280;861;48.808;9.006;2023-11-19T01:29:14;96922.69;;;10.43;99.84
41703;BME280;861;48.808;9.006;2023-11-19T01:31:46;96917.63;;;10.48;99.81
41703;BME280;861;48.808;9.006;2023-11-19T01:34:13;96915.31;;;10.68;99.84
41703;BME280;861;48.808;9.006;2023-11-19T01:36:40;96918.81;;;10.65;99.22
41703;BME280;861;48.808;9.006;2023-11-19T01:39:07;96914.91;;;10.55;98.91
41703;BME280;861;48.808;9.006;2023-11-19T01:41:37;96923.09;;;10.55;100.00
41703;BME280;861;48.808;9.006;2023-11-19T01:44:07;96917.63;;;10.55;100.00
41703;BME280;861;48.808;9.006;2023-11-19T01:46:35;96915.69;;;10.56;100.00
41703;BME280;861;48.808;9.006;2023-11-19T01:49:03;96925.03;;;10.72;100.00
41703;BME280;861;48.808;9.006;2023-11-19T01:51:32;96911.41;;;10.87;98.99
41703;BME280;861;48.808;9.006;2023-11-19T01:53:59;96913.34;;;10.68;100.00
41703;BME280;861;48.808;9.006;2023-11-19T01:56:27;96913.75;;;10.74;99.48
41703;BME280;861;48.808;9.006;2023-11-19T01:58:56;96915.69;;;10.63;100.00
41703;BME280;861;48.808;9.006;2023-11-19T02:01:24;96909.09;;;10.74;99.52
41703;BME280;861;48.808;9.006;2023-11-19T02:07:51;96910.63;;;10.68;100.00
41703;BME280;861;48.808;9.006;2023-11-19T02:10:19;96901.69;;;10.71;100.00
41703;BME280;861;48.808;9.006;2023-11-19T02:12:47;96902.09;;;10.63;100.00
41703;BME280;861;48.808;9.006;2023-11-19T02:15:19;96904.44;;;10.86;100.00
41703;BME280;861;48.808;9.006;2023-11-19T02:17:46;96897.00;;;10.68;100.00
41703;BME280;861;48.808;9.006;2023-11-19T02:20:12;96884.97;;;10.69;100.00
41703;BME280;861;48.808;9.006;2023-11-19T02:22:41;96891.19;;;10.80;100.00
41703;BME280;861;48.808;9.006;2023-11-19T02:25:25;96882.22;;;10.94;100.00
41703;BME280;861;48.808;9.006;2023-11-19T02:28:02;96886.50;;;11.02;99.60
41703;BME280;861;48.808;9.006;2023-11-19T02:30:30;96879.91;;;11.00;99.79
41703;BME280;861;48.808;9.006;2023-11-19T02:32:59;96874.44;;;10.93;100.00
41703;BME280;861;48.808;9.006;2023-11-19T02:35:29;96881.47;;;10.90;100.00
41703;BME280;861;48.808;9.006;2023-11-19T02:37:59;96880.25;;;11.09;100.00
41703;BME280;861;48.808;9.006;2023-11-19T02:40:27;96879.47;;;11.08;99.89
41703;BME280;861;48.808;9.006;2023-11-19T02:42:54;96882.94;;;11.23;98.80
41703;BME280;861;48.808;9.006;2023-11-19T02:45:23;96884.16;;;11.01;100.00
41703;BME280;861;48.808;9.006;2023-11-19T02:47:54;96891.91;;;11.23;99.03
41703;BME280;861;48.808;9.006;2023-11-19T02:50:24;96905.16;;;11.25;99.29
41703;BME280;861;48.808;9.006;2023-11-19T02:52:54;96883.31;;;11.32;99.13
41703;BME280;861;48.808;9.006;2023-11-19T02:55:25;96882.94;;;11.16;100.00
41703;BME280;861;48.808;9.006;2023-11-19T02:57:54;96883.66;;;11.44;98.14
41703;BME280;861;48.808;9.006;2023-11-19T03:00:23;96885.97;;;11.56;97.63
41703;BME280;861;48.808;9.006;2023-11-19T03:02:52;96887.97;;;11.35;98.48
41703;BME280;861;48.808;9.006;2023-11-19T03:05:27;96897.28;;;11.51;97.77
41703;BME280;861;48.808;9.006;2023-11-19T03:07:56;96886.44;;;11.41;98.66
41703;BME280;861;48.808;9.006;2023-11-19T03:10:24;96894.19;;;11.46;97.70
41703;BME280;861;48.808;9.006;2023-11-19T03:12:51;96901.63;;;11.24;99.66
41703;BME280;861;48.808;9.006;2023-11-19T03:15:17;96896.16;;;11.45;98.65
41703;BME280;861;48.808;9.006;2023-11-19T03:17:45;96888.72;;;11.56;98.22
41703;BME280;861;48.808;9.006;2023-11-19T03:20:13;96877.81;;;11.49;98.19
41703;BME280;861;48.808;9.006;2023-11-19T03:22:43;96887.56;;;11.40;99.13
41703;BME280;861;48.808;9.006;2023-11-19T03:25:11;96894.25;;;11.28;100.00
41703;BME280;861;48.808;9.006;2023-11-19T03:27:39;96894.25;;;11.25;100.00
41703;BME280;861;48.808;9.006;2023-11-19T03:30:08;96879.78;;;11.38;100.00
41703;BME280;861;48.808;9.006;2023-11-19T03:32:36;96880.94;;;11.48;99.12
41703;BME280;861;48.808;9.006;2023-11-19T03:35:04;96882.59;;;11.17;100.00
41703;BME280;861;48.808;9.006;2023-11-19T03:37:33;96887.97;;;11.38;99.28
41703;BME280;861;48.808;9.006;2023-11-19T03:40:00;96887.22;;;11.34;100.00
41703;BME280;861;48.808;9.006;2023-11-19T03:42:27;96879.34;;;11.61;99.07
41703;BME280;861;48.808;9.006;2023-11-19T03:44:54;96871.94;;;11.58;99.93
41703;BME280;861;48.808;9.006;2023-11-19T03:47:22;96878.56;;;11.57;99.67
41703;BME280;861;48.808;9.006;2023-11-19T03:49:52;96879.41;;;11.43;100.00
41703;BME280;861;48.808;9.006;2023-11-19T03:52:19;96875.06;;;11.67;99.38
41703;BME280;861;48.808;9.006;2023-11-19T03:54:46;96869.53;;;11.77;97.59
41703;BME280;861;48.808;9.006;2023-11-19T03:57:13;96873.91;;;11.64;99.52
41703;BME280;861;48.808;9.006;2023-11-19T03:59:42;96873.88;;;11.61;99.13
41703;BME280;861;48.808;9.006;2023-11-19T04:02:08;96857.56;;;11.50;99.61
41703;BME280;861;48.808;9.006;2023-11-19T04:04:35;96856.78;;;11.50;100.00
41703;BME280;861;48.808;9.006;2023-11-19T04:07:02;96864.91;;;11.71;99.51
41703;BME280;861;48.808;9.006;2023-11-19T04:09:29;96863.78;;;11.58;99.46
41703;BME280;861;48.808;9.006;2023-11-19T04:12:00;96870.03;;;11.55;99.51
41703;BME280;861;48.808;9.006;2023-11-19T04:14:27;96865.72;;;11.54;100.00
41703;BME280;861;48.808;9.006;2023-11-19T04:16:54;96866.91;;;11.53;100.00
41703;BME280;861;48.808;9.006;2023-11-19T04:19:21;96868.03;;;11.69;99.70
41703;BME280;861;48.808;9.006;2023-11-19T04:21:48;96869.63;;;11.56;100.00
41703;BME280;861;48.808;9.006;2023-11-19T04:24:14;96862.22;;;11.53;100.00
41703;BME280;861;48.808;9.006;2023-11-19T04:26:45;96866.47;;;11.68;100.00
41703;BME280;861;48.808;9.006;2023-11-19T04:29:17;96859.13;;;11.48;100.00
41703;BME280;861;48.808;9.006;2023-11-19T04:31:44;96863.38;;;11.59;100.00
41703;BME280;861;48.808;9.006;2023-11-19T04:34:12;96866.91;;;11.56;100.00
41703;BME280;861;48.808;9.006;2023-11-19T04:36:39;96870.03;;;11.55;100.00
41703;BME280;861;48.808;9.006;2023-11-19T04:39:06;96872.31;;;11.74;100.00
41703;BME280;861;48.808;9.006;2023-11-19T04:41:49;96876.22;;;11.62;99.78
41703;BME280;861;48.808;9.006;2023-11-19T04:44:17;96870.78;;;11.66;99.43
41703;BME280;861;48.808;9.006;2023-11-19T04:46:44;96870.34;;;11.74;99.79
41703;BME280;861;48.808;9.006;2023-11-19T04:49:12;96871.56;;;11.59;99.96
41703;BME280;861;48.808;9.006;2023-11-19T04:51:45;96874.25;;;11.70;100.00
41703;BME280;861;48.808;9.006;2023-11-19T04:54:13;96880.13;;;11.68;99.73
41703;BME280;861;48.808;9.006;2023-11-19T04:56:40;96884.38;;;11.73;99.63
41703;BME280;861;48.808;9.006;2023-11-19T04:59:11;96885.59;;;11.54;100.00
41703;BME280;861;48.808;9.006;2023-11-19T05:01:38;96882.06;;;11.61;100.00
41703;BME280;861;48.808;9.006;2023-11-19T05:04:04;96879.31;;;11.71;100.00
41703;BME280;861;48.808;9.006;2023-11-19T05:06:32;96883.69;;;11.41;100.00
41703;BME280;861;48.808;9.006;2023-11-19T05:09:00;96867.69;;;11.53;100.00
41703;BME280;861;48.808;9.006;2023-11-19T05:11:31;96878.94;;;11.59;100.00
41703;BME280;861;48.808;9.006;2023-11-19T05:13:59;96880.13;;;11.68;100.00
41703;BME280;861;48.808;9.006;2023-11-19T05:16:25;96880.13;;;11.54;100.00
41703;BME280;861;48.808;9.006;2023-11-19T05:18:52;96884.03;;;11.67;100.00
41703;BME280;861;48.808;9.006;2023-11-19T05:21:19;96885.22;;;11.63;100.00
41703;BME280;861;48.808;9.006;2023-11-19T05:23:45;96881.25;;;11.71;100.00
41703;BME280;861;48.808;9.006;2023-11-19T05:26:22;96889.03;;;11.83;100.00
41703;BME280;861;48.808;9.006;2023-11-19T05:28:50;96881.25;;;11.71;100.00
41703;BME280;861;48.808;9.006;2023-11-19T05:31:18;96883.97;;;11.78;100.00
41703;BME280;861;48.808;9.006;2023-11-19T05:33:45;96892.22;;;11.67;100.00
41703;BME280;861;48.808;9.006;2023-11-19T05:36:12;96887.13;;;11.62;100.00
41703;BME280;861;48.808;9.006;2023-11-19T05:38:40;96880.88;;;11.58;100.00
41703;BME280;861;48.808;9.006;2023-11-19T05:41:06;96879.34;;;11.54;100.00
41703;BME280;861;48.808;9.006;2023-11-19T05:43:33;96883.16;;;11.81;100.00
41703;BME280;861;48.808;9.006;2023-11-19T05:46:00;96880.47;;;11.77;100.00
41703;BME280;861;48.808;9.006;2023-11-19T05:48:28;96888.63;;;11.84;100.00
41703;BME280;861;48.808;9.006;2023-11-19T05:50:55;96880.84;;;11.79;100.00
41703;BME280;861;48.808;9.006;2023-11-19T05:53:21;96866.47;;;11.75;100.00
41703;BME280;861;48.808;9.006;2023-11-19T05:55:48;96866.84;;;11.74;100.00
41703;BME280;861;48.808;9.006;2023-11-19T05:58:28;96866.50;;;11.58;100.00
41703;BME280;861;48.808;9.006;2023-11-19T06:00:59;96873.78;;;11.89;100.00
41703;BME280;861;48.808;9.006;2023-11-19T06:03:27;96873.06;;;11.74;100.00
41703;BME280;861;48.808;9.006;2023-11-19T06:05:54;96876.59;;;11.75;100.00
41703;BME280;861;48.808;9.006;2023-11-19T06:08:21;96876.16;;;11.80;100.00
41703;BME280;861;48.808;9.006;2023-11-19T06:10:47;96876.91;;;11.84;100.00
41703;BME280;861;48.808;9.006;2023-11-19T06:13:16;96885.16;;;11.70;100.00
41703;BME280;861;48.808;9.006;2023-11-19T06:15:43;96880.00;;;11.93;100.00
41703;BME280;861;48.808;9.006;2023-11-19T06:18:11;96886.59;;;11.99;100.00
41703;BME280;861;48.808;9.006;2023-11-19T06:20:38;96894.41;;;11.93;100.00
41703;BME280;861;48.808;9.006;2023-11-19T06:23:05;96892.66;;;12.27;97.98
41703;BME280;861;48.808;9.006;2023-11-19T06:25:31;96888.16;;;12.00;100.00
41703;BME280;861;48.808;9.006;2023-11-19T06:27:59;96889.19;;;12.20;99.21
41703;BME280;861;48.808;9.006;2023-11-19T06:30:25;96891.19;;;12.16;99.45
41703;BME280;861;48.808;9.006;2023-11-19T06:32:54;96892.75;;;12.13;100.00
41703;BME280;861;48.808;9.006;2023-11-19T06:35:21;96894.81;;;11.88;100.00
41703;BME280;861;48.808;9.006;2023-11-19T06:37:47;96895.53;;;12.03;100.00
41703;BME280;861;48.808;9.006;2023-11-19T06:40:14;96902.44;;;12.25;100.00
41703;BME280;861;48.808;9.006;2023-11-19T06:42:42;96902.03;;;12.30;99.78
41703;BME280;861;48.808;9.006;2023-11-19T06:45:08;96900.09;;;12.23;100.00
41703;BME280;861;48.808;9.006;2023-11-19T06:47:35;96903.22;;;12.22;100.00
41703;BME280;861;48.808;9.006;2023-11-19T06:50:02;96896.59;;;12.23;100.00
41703;BME280;861;48.808;9.006;2023-11-19T06:52:31;96902.81;;;12.27;100.00
41703;BME280;861;48.808;9.006;2023-11-19T06:54:58;96897.66;;;12.43;97.99
41703;BME280;861;48.808;9.006;2023-11-19T06:57:25;96907.97;;;12.14;100.00
41703;BME280;861;48.808;9.006;2023-11-19T06:59:51;96898.28;;;11.99;100.00
41703;BME280;861;48.808;9.006;2023-11-19T07:02:18;96897.91;;;11.97;100.00
41703;BME280;861;48.808;9.006;2023-11-19T07:04:44;96896.19;;;12.24;100.00
41703;BME280;861;48.808;9.006;2023-11-19T07:07:12;96899.78;;;12.07;100.00
41703;BME280;861;48.808;9.006;2023-11-19T07:09:41;96907.16;;;12.17;100.00
41703;BME280;861;48.808;9.006;2023-11-19T07:12:08;96899.75;;;12.18;100.00
41703;BME280;861;48.808;9.006;2023-11-19T07:14:35;96897.75;;;12.29;100.00
41703;BME280;861;48.808;9.006;2023-11-19T07:17:02;96899.28;;;12.30;99.74
41703;BME280;861;48.808;9.006;2023-11-19T07:19:28;96905.50;;;12.34;99.10
41703;BME280;861;48.808;9.006;2023-11-19T07:21:55;96898.19;;;12.20;99.60
41703;BME280;861;48.808;9.006;2023-11-19T07:24:22;96901.31;;;12.19;99.85
41703;BME280;861;48.808;9.006;2023-11-19T07:26:49;96916.47;;;12.23;99.12
41703;BME280;861;48.808;9.006;2023-11-19T07:29:15;96907.47;;;12.30;98.60
41703;BME280;861;48.808;9.006;2023-11-19T07:31:45;96923.34;;;12.49;98.23
41703;BME280;861;48.808;9.006;2023-11-19T07:34:11;96919.63;;;12.18;99.99
41703;BME280;861;48.808;9.006;2023-11-19T07:36:40;96923.16;;;12.15;100.00
41703;BME280;861;48.808;9.006;2023-11-19T07:39:07;96928.22;;;12.13;100.00
41703;BME280;861;48.808;9.006;2023-11-19T07:41:35;96924.16;;;12.46;98.15
41703;BME280;861;48.808;9.006;2023-11-19T07:44:01;96935.25;;;12.14;99.69
41703;BME280;861;48.808;9.006;2023-11-19T07:50:28;96940.97;;;12.41;99.07
41703;BME280;861;48.808;9.006;2023-11-19T07:52:58;96942.09;;;12.47;98.14
41703;BME280;861;48.808;9.006;2023-11-19T07:55:24;96952.28;;;12.43;97.12
41703;BME280;861;48.808;9.006;2023-11-19T07:57:51;96951.75;;;12.62;95.81
41703;BME280;861;48.808;9.006;2023-11-19T08:00:18;96940.50;;;12.50;96.09
41703;BME280;861;48.808;9.006;2023-11-19T08:02:45;96948.66;;;12.57;96.28
41703;BME280;861;48.808;9.006;2023-11-19T08:05:12;96950.25;;;12.54;96.14
41703;BME280;861;48.808;9.006;2023-11-19T08:07:39;96946.38;;;12.48;97.45
41703;BME280;861;48.808;9.006;2023-11-19T08:10:06;96947.94;;;12.49;97.15
41703;BME280;861;48.808;9.006;2023-11-19T08:12:37;96944.88;;;12.37;98.59
41703;BME280;861;48.808;9.006;2023-11-19T08:15:04;96938.88;;;12.59;96.69
41703;BME280;861;48.808;9.006;2023-11-19T08:17:31;96937.44;;;12.44;97.39
41703;BME280;861;48.808;9.006;2023-11-19T08:19:57;96947.53;;;12.54;97.65
41703;BME280;861;48.808;9.006;2023-11-19T08:22:26;96952.91;;;12.65;96.57
41703;BME280;861;48.808;9.006;2023-11-19T08:24:52;96952.06;;;12.75;96.00
41703;BME280;861;48.808;9.006;2023-11-19T08:27:19;96959.91;;;12.66;96.90
41703;BME280;861;48.808;9.006;2023-11-19T08:29:55;96945.44;;;12.72;95.96
41703;BME280;861;48.808;9.006;2023-11-19T08:32:27;96947.28;;;12.86;95.79
41703;BME280;861;48.808;9.006;2023-11-19T08:34:55;96940.66;;;12.83;96.25
41703;BME280;861;48.808;9.006;2023-11-19T08:37:22;96947.91;;;13.11;96.44
41703;BME280;861;48.808;9.006;2023-11-19T08:39:50;96952.59;;;13.07;95.16
41703;BME280;861;48.808;9.006;2023-11-19T08:42:18;96959.31;;;12.95;96.46
41703;BME280;861;48.808;9.006;2023-11-19T08:44:49;96967.06;;;13.07;94.27
41703;BME280;861;48.808;9.006;2023-11-19T08:47:20;96965.81;;;13.15;93.89
41703;BME280;861;48.808;9.006;2023-11-19T08:49:51;96960.28;;;13.22;93.55
41703;BME280;861;48.808;9.006;2023-11-19T08:52:18;96960.38;;;13.12;94.88
41703;BME280;861;48.808;9.006;2023-11-19T08:54:45;96964.72;;;13.09;95.28
41703;BME280;861;48.808;9.006;2023-11-19T08:57:11;96953.94;;;13.32;93.57
41703;BME280;861;48.808;9.006;2023-11-19T08:59:38;96956.72;;;13.29;94.58
41703;BME280;861;48.808;9.006;2023-11-19T09:02:06;96963.00;;;13.26;96.26
41703;BME280;861;48.808;9.006;2023-11-19T09:04:33;96965.72;;;13.66;92.53
41703;BME280;861;48.808;9.006;2023-11-19T09:07:00;96968.63;;;13.90;91.26
41703;BME280;861;48.808;9.006;2023-11-19T09:09:26;96968.13;;;13.95;89.76
41703;BME280;861;48.808;9.006;2023-11-19T09:11:53;96959.22;;;13.87;90.03
41703;BME280;861;48.808;9.006;2023-11-19T09:14:19;96953.47;;;13.78;90.74
41703;BME280;861;48.808;9.006;2023-11-19T09:16:50;96963.41;;;13.61;91.04
41703;BME280;861;48.808;9.006;2023-11-19T09:19:17;96964.72;;;13.87;89.21
41703;BME280;861;48.808;9.006;2023-11-19T09:21:44;96949.09;;;13.84;89.93
41703;BME280;861;48.808;9.006;2023-11-19T09:24:11;96966.47;;;14.04;88.16
41703;BME280;861;48.808;9.006;2023-11-19T09:26:37;96969.94;;;14.08;87.09
41703;BME280;861;48.808;9.006;2023-11-19T09:29:06;96968.44;;;14.37;87.43
41703;BME280;861;48.808;9.006;2023-11-19T09:31:37;96973.03;;;14.44;86.27
41703;BME280;861;48.808;9.006;2023-11-19T09:34:04;96963.28;;;14.43;87.73
41703;BME280;861;48.808;9.006;2023-11-19T09:36:32;96967.97;;;14.42;87.39
41703;BME280;861;48.808;9.006;2023-11-19T09:38:58;96960.19;;;14.67;84.76
41703;BME280;861;48.808;9.006;2023-11-19T09:41:28;96964.28;;;14.82;85.18
41703;BME280;861;48.808;9.006;2023-11-19T09:43:57;96959.81;;;14.92;83.79
41703;BME280;861;48.808;9.006;2023-11-19T09:46:24;96964.72;;;15.04;83.18
41703;BME280;861;48.808;9.006;2023-11-19T09:48:54;96957.09;;;15.15;82.02
41703;BME280;861;48.808;9.006;2023-11-19T09:51:22;96956.06;;;15.05;82.72
41703;BME280;861;48.808;9.006;2023-11-19T09:53:49;96963.91;;;15.30;82.52
41703;BME280;861;48.808;9.006;2023-11-19T09:56:16;96967.94;;;15.49;79.51
41703;BME280;861;48.808;9.006;2023-11-19T09:58:43;96949.72;;;15.58;78.41
41703;BME280;861;48.808;9.006;2023-11-19T10:01:10;96955.84;;;15.85;78.55
41703;BME280;861;48.808;9.006;2023-11-19T10:03:40;96944.19;;;15.81;77.67
41703;BME280;861;48.808;9.006;2023-11-19T10:06:08;96939.75;;;15.87;76.26
41703;BME280;861;48.808;9.006;2023-11-19T10:08:40;96943.19;;;15.72;77.73
41703;BME280;861;48.808;9.006;2023-11-19T10:11:08;96933.41;;;15.71;78.57
41703;BME280;861;48.808;9.006;2023-11-19T10:13:37;96948.63;;;15.75;76.56
41703;BME280;861;48.808;9.006;2023-11-19T10:16:13;96952.81;;;15.60;76.33
41703;BME280;861;48.808;9.006;2023-11-19T10:18:48;96952.31;;;15.65;77.47
41703;BME280;861;48.808;9.006;2023-11-19T10:21:20;96960.41;;;15.53;75.04
41703;BME280;861;48.808;9.006;2023-11-19T10:23:50;96950.81;;;15.41;77.15
41703;BME280;861;48.808;9.006;2023-11-19T10:26:20;96948.34;;;15.47;77.53
41703;BME280;861;48.808;9.006;2023-11-19T10:28:48;96950.72;;;15.45;76.88
41703;BME280;861;48.808;9.006;2023-11-19T10:31:20;96941.75;;;15.44;76.19
41703;BME280;861;48.808;9.006;2023-11-19T10:33:53;96949.00;;;15.31;74.52
41703;BME280;861;48.808;9.006;2023-11-19T10:36:20;96941.03;;;15.36;76.50
41703;BME280;861;48.808;9.006;2023-11-19T10:38:55;96950.19;;;15.30;74.59
41703;BME280;861;48.808;9.006;2023-11-19T10:45:24;96943.41;;;15.38;74.32
41703;BME280;861;48.808;9.006;2023-11-19T11:03:52;96937.50;;;16.02;71.95
41703;BME280;861;48.808;9.006;2023-11-19T11:06:49;96947.28;;;16.03;71.20
41703;BME280;861;48.808;9.006;2023-11-19T11:09:42;96934.13;;;15.94;71.42
41703;BME280;861;48.808;9.006;2023-11-19T11:16:10;96945.31;;;16.03;70.38
41703;BME280;861;48.808;9.006;2023-11-19T11:18:38;96962.44;;;15.91;70.73
41703;BME280;861;48.808;9.006;2023-11-19T11:21:06;96952.94;;;15.96;69.65
41703;BME280;861;48.808;9.006;2023-11-19T11:30:39;96933.41;;;15.90;69.62
41703;BME280;861;48.808;9.006;2023-11-19T11:33:40;96935.38;;;16.09;69.62
41703;BME280;861;48.808;9.006;2023-11-19T11:36:23;96918.50;;;15.91;70.60
41703;BME280;861;48.808;9.006;2023-11-19T11:58:55;96902.63;;;15.79;70.50
41703;BME280;861;48.808;9.006;2023-11-19T12:01:21;96909.34;;;15.98;69.50
41703;BME280;861;48.808;9.006;2023-11-19T12:03:51;96914.72;;;16.21;71.06
41703;BME280;861;48.808;9.006;2023-11-19T12:06:22;96908.00;;;16.41;70.82
41703;BME280;861;48.808;9.006;2023-11-19T12:08:49;96921.28;;;16.62;67.46
41703;BME280;861;48.808;9.006;2023-11-19T12:11:17;96911.59;;;16.38;68.14
41703;BME280;861;48.808;9.006;2023-11-19T12:13:55;96903.84;;;16.69;67.00
41703;BME280;861;48.808;9.006;2023-11-19T12:16:24;96911.78;;;16.67;68.00
41703;BME280;861;48.808;9.006;2023-11-19T12:18:53;96911.78;;;16.83;67.89
41703;BME280;861;48.808;9.006;2023-11-19T12:21:31;96916.31;;;16.73;66.70
41703;BME280;861;48.808;9.006;2023-11-19T12:24:00;96904.72;;;16.66;64.53
41703;BME280;861;48.808;9.006;2023-11-19T12:26:40;96893.81;;;16.78;63.95
41703;BME280;861;48.808;9.006;2023-11-19T12:29:08;96890.63;;;16.80;62.52
41703;BME280;861;48.808;9.006;2023-11-19T12:31:35;96881.09;;;16.84;64.94
41703;BME280;861;48.808;9.006;2023-11-19T12:34:05;96875.50;;;16.56;63.08
41703;BME280;861;48.808;9.006;2023-11-19T12:36:33;96885.28;;;16.21;62.82
41703;BME280;861;48.808;9.006;2023-11-19T12:39:01;96884.28;;;16.31;62.90
41703;BME280;861;48.808;9.006;2023-11-19T12:41:27;96886.16;;;16.34;63.29
41703;BME280;861;48.808;9.006;2023-11-19T12:43:57;96879.88;;;16.53;62.49
41703;BME280;861;48.808;9.006;2023-11-19T12:46:35;96885.63;;;16.75;63.37
41703;BME280;861;48.808;9.006;2023-11-19T12:49:01;96870.69;;;16.60;62.66
41703;BME280;861;48.808;9.006;2023-11-19T12:51:32;96858.06;;;16.46;64.39
41703;BME280;861;48.808;9.006;2023-11-19T12:53:59;96875.38;;;16.43;64.50
41703;BME280;861;48.808;9.006;2023-11-19T12:56:26;96865.47;;;16.65;64.35
41703;BME280;861;48.808;9.006;2023-11-19T12:58:52;96867.41;;;16.49;63.54
41703;BME280;861;48.808;9.006;2023-11-19T13:01:21;96862.44;;;16.60;64.95
41703;BME280;861;48.808;9.006;2023-11-19T13:03:48;96875.28;;;16.31;64.04
41703;BME280;861;48.808;9.006;2023-11-19T13:06:15;96884.28;;;16.31;66.65
41703;BME280;861;48.808;9.006;2023-11-19T13:08:48;96882.97;;;16.55;65.79
41703;BME280;861;48.808;9.006;2023-11-19T13:11:35;96881.53;;;16.67;64.55
41703;BME280;861;48.808;9.006;2023-11-19T13:14:04;96883.41;;;16.70;62.58
41703;BME280;861;48.808;9.006;2023-11-19T13:16:32;96871.13;;;16.58;61.32
41703;BME280;861;48.808;9.006;2023-11-19T13:26:40;96870.94;;;16.49;62.60
41703;BME280;861;48.808;9.006;2023-11-19T13:29:07;96872.56;;;16.47;61.88
41703;BME280;861;48.808;9.006;2023-11-19T13:31:33;96855.16;;;16.69;62.19
41703;BME280;861;48.808;9.006;2023-11-19T13:34:00;96859.28;;;16.77;61.88
41703;BME280;861;48.808;9.006;2023-11-19T13:36:26;96856.59;;;17.06;62.55
41703;BME280;861;48.808;9.006;2023-11-19T13:38:53;96840.94;;;17.03;61.14
41703;BME280;861;48.808;9.006;2023-11-19T13:41:26;96826.88;;;16.53;59.03
41703;BME280;861;48.808;9.006;2023-11-19T13:43:52;96835.28;;;16.46;60.94
41703;BME280;861;48.808;9.006;2023-11-19T13:46:20;96839.34;;;16.57;59.55
41703;BME280;861;48.808;9.006;2023-11-19T13:48:46;96842.94;;;16.54;58.95
41703;BME280;861;48.808;9.006;2023-11-19T13:51:15;96841.97;;;16.61;59.22
41703;BME280;861;48.808;9.006;2023-11-19T13:53:42;96850.94;;;16.81;58.48
41703;BME280;861;48.808;9.006;2023-11-19T13:56:09;96851.63;;;16.85;58.81
41703;BME280;861;48.808;9.006;2023-11-19T13:58:36;96839.75;;;16.88;56.69
41703;BME280;861;48.808;9.006;2023-11-19T14:01:03;96852.38;;;17.02;56.82
41703;BME280;861;48.808;9.006;2023-11-19T14:03:29;96848.28;;;16.94;57.26
41703;BME280;861;48.808;9.006;2023-11-19T14:05:58;96841.91;;;16.97;57.71
41703;BME280;861;48.808;9.006;2023-11-19T14:16:29;96844.31;;;16.46;58.22
41703;BME280;861;48.808;9.006;2023-11-19T14:26:56;96833.41;;;16.59;58.87
41703;BME280;861;48.808;9.006;2023-11-19T14:29:25;96835.03;;;16.72;57.85
41703;BME280;861;48.808;9.006;2023-11-19T14:31:56;96831.75;;;16.94;59.13
41703;BME280;861;48.808;9.006;2023-11-19T14:34:23;96833.66;;;16.97;57.90
41703;BME280;861;48.808;9.006;2023-11-19T14:36:51;96830.19;;;17.09;59.08
41703;BME280;861;48.808;9.006;2023-11-19T14:39:17;96820.03;;;17.06;57.86
41703;BME280;861;48.808;9.006;2023-11-19T14:41:44;96821.94;;;17.09;59.06
41703;BME280;861;48.808;9.006;2023-11-19T14:52:55;96830.69;;;17.04;58.93
41703;BME280;861;48.808;9.006;2023-11-19T14:59:18;96830.16;;;16.28;61.36
41703;BME280;861;48.808;9.006;2023-11-19T15:02:00;96830.78;;;16.36;59.75